sensor_id;sensor_type;location;lat;lon;timestamp;temperature;humidity
17813;DHT22;9030;50.792;8.320;2022-09-14T00:01:18;16.90;99.90
17813;DHT22;9030;50.792;8.320;2022-09-14T00:03:46;16.80;99.90
17813;DHT22;9030;50.792;8.320;2022-09-14T00:06:14;16.70;99.90
17813;DHT22;9030;50.792;8.320;2022-09-14T00:08:42;16.80;99.90
17813;DHT22;9030;50.792;8.320;2022-09-14T00:11:12;16.80;99.90
17813;DHT22;9030;50.792;8.320;2022-09-14T00:13:41;16.80;99.90
17813;DHT22;9030;50.792;8.320;2022-09-14T00:16:12;16.90;99.90
17813;DHT22;9030;50.792;8.320;2022-09-14T00:18:39;16.90;99.90
17813;DHT22;9030;50.792;8.320;2022-09-14T00:21:08;16.90;99.90
17813;DHT22;9030;50.792;8.320;2022-09-14T00:23:36;16.90;99.90
17813;DHT22;9030;50.792;8.320;2022-09-14T00:26:04;16.90;99.90
17813;DHT22;9030;50.792;8.320;2022-09-14T00:28:37;16.90;99.90
17813;DHT22;9030;50.792;8.320;2022-09-14T00:31:04;16.90;99.90
17813;DHT22;9030;50.792;8.320;2022-09-14T00:33:31;16.90;99.90
17813;DHT22;9030;50.792;8.320;2022-09-14T00:36:04;16.90;99.90
17813;DHT22;9030;50.792;8.320;2022-09-14T00:38:30;16.90;99.90
17813;DHT22;9030;50.792;8.320;2022-09-14T00:40:59;16.80;99.90
17813;DHT22;9030;50.792;8.320;2022-09-14T00:43:26;16.80;99.90
17813;DHT22;9030;50.792;8.320;2022-09-14T00:45:53;16.80;99.90
17813;DHT22;9030;50.792;8.320;2022-09-14T00:48:23;16.80;99.90
17813;DHT22;9030;50.792;8.320;2022-09-14T00:50:51;16.80;99.90
17813;DHT22;9030;50.792;8.320;2022-09-14T00:53:18;16.90;99.90
17813;DHT22;9030;50.792;8.320;2022-09-14T00:55:44;16.80;99.90
17813;DHT22;9030;50.792;8.320;2022-09-14T00:58:11;16.80;99.90
17813;DHT22;9030;50.792;8.320;2022-09-14T01:00:38;16.80;99.90
17813;DHT22;9030;50.792;8.320;2022-09-14T01:03:06;16.80;99.90
17813;DHT22;9030;50.792;8.320;2022-09-14T01:05:44;16.70;99.90
17813;DHT22;9030;50.792;8.320;2022-09-14T01:08:21;16.70;99.90
17813;DHT22;9030;50.792;8.320;2022-09-14T01:11:00;16.70;99.90
17813;DHT22;9030;50.792;8.320;2022-09-14T01:13:38;16.70;99.90
17813;DHT22;9030;50.792;8.320;2022-09-14T01:16:10;16.70;99.90
17813;DHT22;9030;50.792;8.320;2022-09-14T01:18:44;16.70;99.90
17813;DHT22;9030;50.792;8.320;2022-09-14T01:21:14;16.70;99.90
17813;DHT22;9030;50.792;8.320;2022-09-14T01:23:47;16.60;99.90
17813;DHT22;9030;50.792;8.320;2022-09-14T01:26:45;16.60;99.90
17813;DHT22;9030;50.792;8.320;2022-09-14T01:29:17;16.60;99.90
17813;DHT22;9030;50.792;8.320;2022-09-14T01:31:49;16.60;99.90
17813;DHT22;9030;50.792;8.320;2022-09-14T01:34:24;16.60;99.90
17813;DHT22;9030;50.792;8.320;2022-09-14T01:36:56;16.50;99.90
17813;DHT22;9030;50.792;8.320;2022-09-14T01:39:26;16.50;99.90
17813;DHT22;9030;50.792;8.320;2022-09-14T01:41:54;16.50;99.90
17813;DHT22;9030;50.792;8.320;2022-09-14T01:44:26;16.50;99.90
17813;DHT22;9030;50.792;8.320;2022-09-14T01:46:55;16.50;99.90
17813;DHT22;9030;50.792;8.320;2022-09-14T01:49:25;16.50;99.90
17813;DHT22;9030;50.792;8.320;2022-09-14T01:52:00;16.60;99.90
17813;DHT22;9030;50.792;8.320;2022-09-14T01:54:32;16.70;99.90
17813;DHT22;9030;50.792;8.320;2022-09-14T01:57:05;16.70;99.90
17813;DHT22;9030;50.792;8.320;2022-09-14T01:59:38;16.70;99.90
17813;DHT22;9030;50.792;8.320;2022-09-14T02:02:10;16.80;99.90
17813;DHT22;9030;50.792;8.320;2022-09-14T02:04:42;16.70;99.90
17813;DHT22;9030;50.792;8.320;2022-09-14T02:07:11;16.60;99.90
17813;DHT22;9030;50.792;8.320;2022-09-14T02:09:38;16.60;99.90
17813;DHT22;9030;50.792;8.320;2022-09-14T02:12:06;16.60;99.90
17813;DHT22;9030;50.792;8.320;2022-09-14T02:14:33;16.70;99.90
17813;DHT22;9030;50.792;8.320;2022-09-14T02:17:01;16.70;99.90
17813;DHT22;9030;50.792;8.320;2022-09-14T02:19:31;16.70;99.90
17813;DHT22;9030;50.792;8.320;2022-09-14T02:22:01;16.80;99.90
17813;DHT22;9030;50.792;8.320;2022-09-14T02:24:27;16.80;99.90
17813;DHT22;9030;50.792;8.320;2022-09-14T02:26:56;16.80;99.90
17813;DHT22;9030;50.792;8.320;2022-09-14T02:29:24;16.80;99.90
17813;DHT22;9030;50.792;8.320;2022-09-14T02:31:59;16.80;99.90
17813;DHT22;9030;50.792;8.320;2022-09-14T02:34:34;16.70;99.90
17813;DHT22;9030;50.792;8.320;2022-09-14T02:37:10;16.70;99.90
17813;DHT22;9030;50.792;8.320;2022-09-14T02:39:46;16.70;99.90
17813;DHT22;9030;50.792;8.320;2022-09-14T02:42:20;16.70;99.90
17813;DHT22;9030;50.792;8.320;2022-09-14T02:44:56;16.70;99.90
17813;DHT22;9030;50.792;8.320;2022-09-14T02:47:27;16.80;99.90
17813;DHT22;9030;50.792;8.320;2022-09-14T02:50:00;16.80;99.90
17813;DHT22;9030;50.792;8.320;2022-09-14T02:52:32;16.70;99.90
17813;DHT22;9030;50.792;8.320;2022-09-14T02:55:04;16.70;99.90
17813;DHT22;9030;50.792;8.320;2022-09-14T02:57:32;16.80;99.90
17813;DHT22;9030;50.792;8.320;2022-09-14T03:00:19;16.80;99.90
17813;DHT22;9030;50.792;8.320;2022-09-14T03:02:46;16.80;99.90
17813;DHT22;9030;50.792;8.320;2022-09-14T03:05:14;16.80;99.90
17813;DHT22;9030;50.792;8.320;2022-09-14T03:07:40;16.80;99.90
17813;DHT22;9030;50.792;8.320;2022-09-14T03:10:08;16.90;99.90
17813;DHT22;9030;50.792;8.320;2022-09-14T03:12:36;16.80;99.90
17813;DHT22;9030;50.792;8.320;2022-09-14T03:15:04;16.90;99.90
17813;DHT22;9030;50.792;8.320;2022-09-14T03:17:31;16.80;99.90
17813;DHT22;9030;50.792;8.320;2022-09-14T03:19:57;16.80;99.90
17813;DHT22;9030;50.792;8.320;2022-09-14T03:22:25;16.70;99.90
17813;DHT22;9030;50.792;8.320;2022-09-14T03:24:52;16.70;99.90
17813;DHT22;9030;50.792;8.320;2022-09-14T03:27:19;16.60;99.90
17813;DHT22;9030;50.792;8.320;2022-09-14T03:29:45;16.60;99.90
17813;DHT22;9030;50.792;8.320;2022-09-14T03:32:12;16.60;99.90
17813;DHT22;9030;50.792;8.320;2022-09-14T03:34:39;16.60;99.90
17813;DHT22;9030;50.792;8.320;2022-09-14T03:37:05;16.50;99.90
17813;DHT22;9030;50.792;8.320;2022-09-14T03:39:34;16.60;99.90
17813;DHT22;9030;50.792;8.320;2022-09-14T03:42:00;16.60;99.90
17813;DHT22;9030;50.792;8.320;2022-09-14T03:44:27;16.60;99.90
17813;DHT22;9030;50.792;8.320;2022-09-14T03:46:54;16.60;99.90
17813;DHT22;9030;50.792;8.320;2022-09-14T03:49:21;16.60;99.90
17813;DHT22;9030;50.792;8.320;2022-09-14T03:51:47;16.70;99.90
17813;DHT22;9030;50.792;8.320;2022-09-14T03:54:14;16.70;99.90
17813;DHT22;9030;50.792;8.320;2022-09-14T03:56:42;16.60;99.90
17813;DHT22;9030;50.792;8.320;2022-09-14T03:59:09;16.60;99.90
17813;DHT22;9030;50.792;8.320;2022-09-14T04:01:36;16.60;99.90
17813;DHT22;9030;50.792;8.320;2022-09-14T04:04:03;16.60;99.90
17813;DHT22;9030;50.792;8.320;2022-09-14T04:06:30;16.60;99.90
17813;DHT22;9030;50.792;8.320;2022-09-14T04:08:57;16.70;99.90
17813;DHT22;9030;50.792;8.320;2022-09-14T04:11:24;16.70;99.90
17813;DHT22;9030;50.792;8.320;2022-09-14T04:13:53;16.70;99.90
17813;DHT22;9030;50.792;8.320;2022-09-14T04:16:21;16.60;99.90
17813;DHT22;9030;50.792;8.320;2022-09-14T04:18:48;16.60;99.90
17813;DHT22;9030;50.792;8.320;2022-09-14T04:21:16;16.50;99.90
17813;DHT22;9030;50.792;8.320;2022-09-14T04:23:43;16.60;99.90
17813;DHT22;9030;50.792;8.320;2022-09-14T04:26:11;16.50;99.90
17813;DHT22;9030;50.792;8.320;2022-09-14T04:28:38;16.50;99.90
17813;DHT22;9030;50.792;8.320;2022-09-14T04:31:08;16.60;99.90
17813;DHT22;9030;50.792;8.320;2022-09-14T04:33:35;16.60;99.90
17813;DHT22;9030;50.792;8.320;2022-09-14T04:36:04;16.60;99.90
17813;DHT22;9030;50.792;8.320;2022-09-14T04:38:32;16.60;99.90
17813;DHT22;9030;50.792;8.320;2022-09-14T04:40:59;16.60;99.90
17813;DHT22;9030;50.792;8.320;2022-09-14T04:43:26;16.60;99.90
17813;DHT22;9030;50.792;8.320;2022-09-14T04:45:53;16.70;99.90
17813;DHT22;9030;50.792;8.320;2022-09-14T04:48:21;16.60;99.90
17813;DHT22;9030;50.792;8.320;2022-09-14T04:50:47;16.60;99.90
17813;DHT22;9030;50.792;8.320;2022-09-14T04:53:14;16.60;99.90
17813;DHT22;9030;50.792;8.320;2022-09-14T04:55:40;16.60;99.90
17813;DHT22;9030;50.792;8.320;2022-09-14T04:58:07;16.60;99.90
17813;DHT22;9030;50.792;8.320;2022-09-14T05:00:34;16.60;99.90
17813;DHT22;9030;50.792;8.320;2022-09-14T05:03:02;16.60;99.90
17813;DHT22;9030;50.792;8.320;2022-09-14T05:05:33;16.60;99.90
17813;DHT22;9030;50.792;8.320;2022-09-14T05:08:00;16.80;99.90
17813;DHT22;9030;50.792;8.320;2022-09-14T05:10:28;16.60;99.90
17813;DHT22;9030;50.792;8.320;2022-09-14T05:12:55;16.60;99.90
17813;DHT22;9030;50.792;8.320;2022-09-14T05:15:22;16.60;99.90
17813;DHT22;9030;50.792;8.320;2022-09-14T05:17:48;16.60;99.90
17813;DHT22;9030;50.792;8.320;2022-09-14T05:20:15;16.60;99.90
17813;DHT22;9030;50.792;8.320;2022-09-14T05:22:47;16.70;99.90
17813;DHT22;9030;50.792;8.320;2022-09-14T05:25:14;16.60;99.90
17813;DHT22;9030;50.792;8.320;2022-09-14T05:27:41;16.70;99.90
17813;DHT22;9030;50.792;8.320;2022-09-14T05:30:08;16.60;99.90
17813;DHT22;9030;50.792;8.320;2022-09-14T05:32:35;16.60;99.90
17813;DHT22;9030;50.792;8.320;2022-09-14T05:35:02;16.60;99.90
17813;DHT22;9030;50.792;8.320;2022-09-14T05:37:29;16.60;99.90
17813;DHT22;9030;50.792;8.320;2022-09-14T05:39:57;16.60;99.90
17813;DHT22;9030;50.792;8.320;2022-09-14T05:42:23;16.60;99.90
17813;DHT22;9030;50.792;8.320;2022-09-14T05:44:50;16.70;99.90
17813;DHT22;9030;50.792;8.320;2022-09-14T05:47:17;16.60;99.90
17813;DHT22;9030;50.792;8.320;2022-09-14T05:49:44;16.60;99.90
17813;DHT22;9030;50.792;8.320;2022-09-14T05:52:10;16.60;99.90
17813;DHT22;9030;50.792;8.320;2022-09-14T05:54:37;16.60;99.90
17813;DHT22;9030;50.792;8.320;2022-09-14T05:57:05;16.70;99.90
17813;DHT22;9030;50.792;8.320;2022-09-14T05:59:32;16.60;99.90
17813;DHT22;9030;50.792;8.320;2022-09-14T06:01:58;16.60;99.90
17813;DHT22;9030;50.792;8.320;2022-09-14T06:04:25;16.60;99.90
17813;DHT22;9030;50.792;8.320;2022-09-14T06:06:52;16.60;99.90
17813;DHT22;9030;50.792;8.320;2022-09-14T06:09:18;16.60;99.90
17813;DHT22;9030;50.792;8.320;2022-09-14T06:11:45;16.60;99.90
17813;DHT22;9030;50.792;8.320;2022-09-14T06:14:13;16.60;99.90
17813;DHT22;9030;50.792;8.320;2022-09-14T06:16:44;16.60;99.90
17813;DHT22;9030;50.792;8.320;2022-09-14T06:19:11;16.60;99.90
17813;DHT22;9030;50.792;8.320;2022-09-14T06:21:40;16.60;99.90
17813;DHT22;9030;50.792;8.320;2022-09-14T06:24:08;16.70;99.90
17813;DHT22;9030;50.792;8.320;2022-09-14T06:26:36;16.60;99.90
17813;DHT22;9030;50.792;8.320;2022-09-14T06:29:03;16.60;99.90
17813;DHT22;9030;50.792;8.320;2022-09-14T06:31:31;16.60;99.90
17813;DHT22;9030;50.792;8.320;2022-09-14T06:33:58;16.70;99.90
17813;DHT22;9030;50.792;8.320;2022-09-14T06:36:26;16.70;99.90
17813;DHT22;9030;50.792;8.320;2022-09-14T06:38:53;16.70;99.90
17813;DHT22;9030;50.792;8.320;2022-09-14T06:41:22;16.70;99.90
17813;DHT22;9030;50.792;8.320;2022-09-14T06:43:50;16.80;99.90
17813;DHT22;9030;50.792;8.320;2022-09-14T06:46:22;16.70;99.90
17813;DHT22;9030;50.792;8.320;2022-09-14T06:48:52;16.70;99.90
17813;DHT22;9030;50.792;8.320;2022-09-14T06:51:21;16.70;99.90
17813;DHT22;9030;50.792;8.320;2022-09-14T06:53:48;16.80;99.90
17813;DHT22;9030;50.792;8.320;2022-09-14T06:56:16;16.80;99.90
17813;DHT22;9030;50.792;8.320;2022-09-14T06:58:43;16.80;99.90
17813;DHT22;9030;50.792;8.320;2022-09-14T07:01:11;16.80;99.90
17813;DHT22;9030;50.792;8.320;2022-09-14T07:03:39;16.80;99.90
17813;DHT22;9030;50.792;8.320;2022-09-14T07:06:09;16.80;99.90
17813;DHT22;9030;50.792;8.320;2022-09-14T07:08:38;16.80;99.90
17813;DHT22;9030;50.792;8.320;2022-09-14T07:11:05;16.80;99.90
17813;DHT22;9030;50.792;8.320;2022-09-14T07:13:33;16.80;99.90
17813;DHT22;9030;50.792;8.320;2022-09-14T07:15:59;16.80;99.90
17813;DHT22;9030;50.792;8.320;2022-09-14T07:18:28;16.80;99.90
17813;DHT22;9030;50.792;8.320;2022-09-14T07:21:00;16.80;99.90
17813;DHT22;9030;50.792;8.320;2022-09-14T07:23:28;16.90;99.90
17813;DHT22;9030;50.792;8.320;2022-09-14T07:26:03;16.80;99.90
17813;DHT22;9030;50.792;8.320;2022-09-14T07:28:30;16.80;99.90
17813;DHT22;9030;50.792;8.320;2022-09-14T07:30:57;16.90;99.90
17813;DHT22;9030;50.792;8.320;2022-09-14T07:33:23;16.90;99.90
17813;DHT22;9030;50.792;8.320;2022-09-14T07:35:50;17.00;99.90
17813;DHT22;9030;50.792;8.320;2022-09-14T07:38:17;17.00;99.90
17813;DHT22;9030;50.792;8.320;2022-09-14T07:40:45;17.10;99.90
17813;DHT22;9030;50.792;8.320;2022-09-14T07:43:12;17.20;99.90
17813;DHT22;9030;50.792;8.320;2022-09-14T07:45:39;17.20;99.90
17813;DHT22;9030;50.792;8.320;2022-09-14T07:48:05;17.20;99.90
17813;DHT22;9030;50.792;8.320;2022-09-14T07:50:32;17.30;99.90
17813;DHT22;9030;50.792;8.320;2022-09-14T07:52:59;17.30;99.90
17813;DHT22;9030;50.792;8.320;2022-09-14T07:55:25;17.40;99.90
17813;DHT22;9030;50.792;8.320;2022-09-14T07:57:55;17.30;99.90
17813;DHT22;9030;50.792;8.320;2022-09-14T08:00:22;17.30;99.90
17813;DHT22;9030;50.792;8.320;2022-09-14T08:02:51;17.40;99.90
17813;DHT22;9030;50.792;8.320;2022-09-14T08:05:18;17.30;99.90
17813;DHT22;9030;50.792;8.320;2022-09-14T08:07:45;17.40;99.90
17813;DHT22;9030;50.792;8.320;2022-09-14T08:10:12;17.30;99.90
17813;DHT22;9030;50.792;8.320;2022-09-14T08:12:38;17.30;99.90
17813;DHT22;9030;50.792;8.320;2022-09-14T08:15:08;17.30;99.90
17813;DHT22;9030;50.792;8.320;2022-09-14T08:17:34;17.30;99.90
17813;DHT22;9030;50.792;8.320;2022-09-14T08:20:02;17.30;99.90
17813;DHT22;9030;50.792;8.320;2022-09-14T08:22:29;17.40;99.90
17813;DHT22;9030;50.792;8.320;2022-09-14T08:24:56;17.50;99.90
17813;DHT22;9030;50.792;8.320;2022-09-14T08:27:23;17.50;99.90
17813;DHT22;9030;50.792;8.320;2022-09-14T08:29:49;17.60;99.90
17813;DHT22;9030;50.792;8.320;2022-09-14T08:32:17;17.60;99.90
17813;DHT22;9030;50.792;8.320;2022-09-14T08:34:44;17.80;99.90
17813;DHT22;9030;50.792;8.320;2022-09-14T08:37:12;17.80;99.90
17813;DHT22;9030;50.792;8.320;2022-09-14T08:39:39;17.70;99.90
17813;DHT22;9030;50.792;8.320;2022-09-14T08:42:10;17.60;99.90
17813;DHT22;9030;50.792;8.320;2022-09-14T08:44:41;17.60;99.90
17813;DHT22;9030;50.792;8.320;2022-09-14T08:47:11;17.60;99.90
17813;DHT22;9030;50.792;8.320;2022-09-14T08:49:44;17.60;99.90
17813;DHT22;9030;50.792;8.320;2022-09-14T08:52:15;17.60;99.90
17813;DHT22;9030;50.792;8.320;2022-09-14T08:54:42;17.50;99.90
17813;DHT22;9030;50.792;8.320;2022-09-14T08:57:15;17.60;99.90
17813;DHT22;9030;50.792;8.320;2022-09-14T08:59:49;17.70;99.90
17813;DHT22;9030;50.792;8.320;2022-09-14T09:02:39;17.80;99.90
17813;DHT22;9030;50.792;8.320;2022-09-14T09:05:24;17.80;99.90
17813;DHT22;9030;50.792;8.320;2022-09-14T09:07:57;18.00;99.90
17813;DHT22;9030;50.792;8.320;2022-09-14T09:10:27;18.20;99.90
17813;DHT22;9030;50.792;8.320;2022-09-14T09:12:57;18.30;99.90
17813;DHT22;9030;50.792;8.320;2022-09-14T09:15:28;18.30;99.90
17813;DHT22;9030;50.792;8.320;2022-09-14T09:18:00;18.20;99.90
17813;DHT22;9030;50.792;8.320;2022-09-14T09:20:31;18.30;99.90
17813;DHT22;9030;50.792;8.320;2022-09-14T09:23:05;18.10;99.90
17813;DHT22;9030;50.792;8.320;2022-09-14T09:25:44;18.20;99.90
17813;DHT22;9030;50.792;8.320;2022-09-14T09:28:12;18.20;99.90
17813;DHT22;9030;50.792;8.320;2022-09-14T09:30:41;18.10;99.90
17813;DHT22;9030;50.792;8.320;2022-09-14T09:33:14;18.20;99.90
17813;DHT22;9030;50.792;8.320;2022-09-14T09:35:43;18.20;99.90
17813;DHT22;9030;50.792;8.320;2022-09-14T09:38:13;18.20;99.90
17813;DHT22;9030;50.792;8.320;2022-09-14T09:40:44;18.20;99.90
17813;DHT22;9030;50.792;8.320;2022-09-14T09:43:12;18.00;99.90
17813;DHT22;9030;50.792;8.320;2022-09-14T09:45:48;17.90;99.90
17813;DHT22;9030;50.792;8.320;2022-09-14T09:48:17;18.10;99.90
17813;DHT22;9030;50.792;8.320;2022-09-14T09:51:01;18.00;99.90
17813;DHT22;9030;50.792;8.320;2022-09-14T09:53:28;18.10;99.90
17813;DHT22;9030;50.792;8.320;2022-09-14T09:55:55;18.40;99.90
17813;DHT22;9030;50.792;8.320;2022-09-14T09:58:28;18.40;99.90
17813;DHT22;9030;50.792;8.320;2022-09-14T10:00:56;18.40;99.90
17813;DHT22;9030;50.792;8.320;2022-09-14T10:03:29;18.50;99.90
17813;DHT22;9030;50.792;8.320;2022-09-14T10:06:02;18.60;99.90
17813;DHT22;9030;50.792;8.320;2022-09-14T10:08:30;18.60;99.90
17813;DHT22;9030;50.792;8.320;2022-09-14T10:11:00;18.60;99.90
17813;DHT22;9030;50.792;8.320;2022-09-14T10:13:29;18.50;99.90
17813;DHT22;9030;50.792;8.320;2022-09-14T10:16:07;18.40;99.90
17813;DHT22;9030;50.792;8.320;2022-09-14T10:18:43;18.40;99.90
17813;DHT22;9030;50.792;8.320;2022-09-14T10:21:12;18.60;99.90
17813;DHT22;9030;50.792;8.320;2022-09-14T10:23:39;18.70;99.90
17813;DHT22;9030;50.792;8.320;2022-09-14T10:26:32;18.70;99.90
17813;DHT22;9030;50.792;8.320;2022-09-14T10:29:25;18.70;99.90
17813;DHT22;9030;50.792;8.320;2022-09-14T10:31:58;18.80;99.90
17813;DHT22;9030;50.792;8.320;2022-09-14T10:34:26;18.80;99.90
17813;DHT22;9030;50.792;8.320;2022-09-14T10:37:03;18.90;99.90
17813;DHT22;9030;50.792;8.320;2022-09-14T10:39:36;18.80;99.90
17813;DHT22;9030;50.792;8.320;2022-09-14T10:42:11;18.90;99.90
17813;DHT22;9030;50.792;8.320;2022-09-14T10:44:51;19.00;99.90
17813;DHT22;9030;50.792;8.320;2022-09-14T10:47:36;18.90;99.90
17813;DHT22;9030;50.792;8.320;2022-09-14T10:50:23;18.90;99.90
17813;DHT22;9030;50.792;8.320;2022-09-14T10:53:04;18.80;99.90
17813;DHT22;9030;50.792;8.320;2022-09-14T10:55:37;18.80;99.90
17813;DHT22;9030;50.792;8.320;2022-09-14T10:58:20;18.70;99.90
17813;DHT22;9030;50.792;8.320;2022-09-14T11:00:57;18.60;99.90
17813;DHT22;9030;50.792;8.320;2022-09-14T11:03:42;18.70;99.90
17813;DHT22;9030;50.792;8.320;2022-09-14T11:06:21;18.60;99.90
17813;DHT22;9030;50.792;8.320;2022-09-14T11:08:54;18.60;99.90
17813;DHT22;9030;50.792;8.320;2022-09-14T11:11:37;18.50;99.90
17813;DHT22;9030;50.792;8.320;2022-09-14T11:14:20;18.60;99.90
17813;DHT22;9030;50.792;8.320;2022-09-14T11:17:01;18.60;99.90
17813;DHT22;9030;50.792;8.320;2022-09-14T11:19:36;18.60;99.90
17813;DHT22;9030;50.792;8.320;2022-09-14T11:22:08;18.60;99.90
17813;DHT22;9030;50.792;8.320;2022-09-14T11:24:43;18.60;99.90
17813;DHT22;9030;50.792;8.320;2022-09-14T11:27:18;18.50;99.90
17813;DHT22;9030;50.792;8.320;2022-09-14T11:29:51;18.50;99.90
17813;DHT22;9030;50.792;8.320;2022-09-14T11:32:21;18.60;99.90
17813;DHT22;9030;50.792;8.320;2022-09-14T11:34:52;18.50;99.90
17813;DHT22;9030;50.792;8.320;2022-09-14T11:37:28;18.40;99.90
17813;DHT22;9030;50.792;8.320;2022-09-14T11:40:04;18.40;99.90
17813;DHT22;9030;50.792;8.320;2022-09-14T11:42:36;18.40;99.90
17813;DHT22;9030;50.792;8.320;2022-09-14T11:45:08;18.30;99.90
17813;DHT22;9030;50.792;8.320;2022-09-14T11:47:43;18.40;99.90
17813;DHT22;9030;50.792;8.320;2022-09-14T11:50:17;18.50;99.90
17813;DHT22;9030;50.792;8.320;2022-09-14T11:52:48;18.50;99.90
17813;DHT22;9030;50.792;8.320;2022-09-14T11:55:19;18.60;99.90
17813;DHT22;9030;50.792;8.320;2022-09-14T11:57:46;18.60;99.90
17813;DHT22;9030;50.792;8.320;2022-09-14T12:00:43;18.50;99.90
17813;DHT22;9030;50.792;8.320;2022-09-14T12:03:17;18.50;99.90
17813;DHT22;9030;50.792;8.320;2022-09-14T12:05:45;18.40;99.90
17813;DHT22;9030;50.792;8.320;2022-09-14T12:08:37;18.40;99.90
17813;DHT22;9030;50.792;8.320;2022-09-14T12:11:25;18.30;99.90
17813;DHT22;9030;50.792;8.320;2022-09-14T12:14:33;18.30;99.90
17813;DHT22;9030;50.792;8.320;2022-09-14T12:17:20;18.30;99.90
17813;DHT22;9030;50.792;8.320;2022-09-14T12:19:48;18.30;99.90
17813;DHT22;9030;50.792;8.320;2022-09-14T12:22:27;18.20;99.90
17813;DHT22;9030;50.792;8.320;2022-09-14T12:25:00;18.20;99.90
17813;DHT22;9030;50.792;8.320;2022-09-14T12:27:31;18.30;99.90
17813;DHT22;9030;50.792;8.320;2022-09-14T12:29:59;18.30;99.90
17813;DHT22;9030;50.792;8.320;2022-09-14T12:35:43;18.40;99.90
17813;DHT22;9030;50.792;8.320;2022-09-14T12:38:40;18.40;99.90
17813;DHT22;9030;50.792;8.320;2022-09-14T12:44:34;18.50;99.90
17813;DHT22;9030;50.792;8.320;2022-09-14T12:47:46;18.70;99.90
17813;DHT22;9030;50.792;8.320;2022-09-14T12:50:16;18.50;99.90
17813;DHT22;9030;50.792;8.320;2022-09-14T12:52:54;18.50;99.90
17813;DHT22;9030;50.792;8.320;2022-09-14T12:55:41;18.60;99.90
17813;DHT22;9030;50.792;8.320;2022-09-14T12:58:23;18.60;99.90
17813;DHT22;9030;50.792;8.320;2022-09-14T13:01:24;18.50;99.90
17813;DHT22;9030;50.792;8.320;2022-09-14T13:03:53;18.30;99.90
17813;DHT22;9030;50.792;8.320;2022-09-14T13:06:22;18.30;99.90
17813;DHT22;9030;50.792;8.320;2022-09-14T13:08:53;18.40;99.90
17813;DHT22;9030;50.792;8.320;2022-09-14T13:11:23;18.40;99.90
17813;DHT22;9030;50.792;8.320;2022-09-14T13:13:52;18.50;99.90
17813;DHT22;9030;50.792;8.320;2022-09-14T13:16:38;18.60;99.90
17813;DHT22;9030;50.792;8.320;2022-09-14T13:19:19;18.50;99.90
17813;DHT22;9030;50.792;8.320;2022-09-14T13:21:47;18.60;99.90
17813;DHT22;9030;50.792;8.320;2022-09-14T13:24:30;18.60;99.90
17813;DHT22;9030;50.792;8.320;2022-09-14T13:27:00;18.50;99.90
17813;DHT22;9030;50.792;8.320;2022-09-14T13:29:28;18.50;99.90
17813;DHT22;9030;50.792;8.320;2022-09-14T13:31:57;18.50;99.90
17813;DHT22;9030;50.792;8.320;2022-09-14T13:34:27;18.50;99.90
17813;DHT22;9030;50.792;8.320;2022-09-14T13:36:55;18.60;99.90
17813;DHT22;9030;50.792;8.320;2022-09-14T13:39:25;18.70;99.90
17813;DHT22;9030;50.792;8.320;2022-09-14T13:41:52;18.80;99.90
17813;DHT22;9030;50.792;8.320;2022-09-14T13:44:24;18.80;99.90
17813;DHT22;9030;50.792;8.320;2022-09-14T13:47:00;18.80;99.90
17813;DHT22;9030;50.792;8.320;2022-09-14T13:49:29;18.70;99.90
17813;DHT22;9030;50.792;8.320;2022-09-14T13:55:18;18.70;99.90
17813;DHT22;9030;50.792;8.320;2022-09-14T13:58:12;18.60;99.90
17813;DHT22;9030;50.792;8.320;2022-09-14T14:00:49;18.50;99.90
17813;DHT22;9030;50.792;8.320;2022-09-14T14:03:27;18.50;99.90
17813;DHT22;9030;50.792;8.320;2022-09-14T14:05:55;18.60;99.90
17813;DHT22;9030;50.792;8.320;2022-09-14T14:08:27;18.60;99.90
17813;DHT22;9030;50.792;8.320;2022-09-14T14:10:55;18.50;99.90
17813;DHT22;9030;50.792;8.320;2022-09-14T14:13:24;18.50;99.90
17813;DHT22;9030;50.792;8.320;2022-09-14T14:15:51;18.50;99.90
17813;DHT22;9030;50.792;8.320;2022-09-14T14:18:39;18.50;99.90
17813;DHT22;9030;50.792;8.320;2022-09-14T14:21:25;18.50;99.90
17813;DHT22;9030;50.792;8.320;2022-09-14T14:26:46;18.60;99.90
17813;DHT22;9030;50.792;8.320;2022-09-14T14:29:13;18.80;99.90
17813;DHT22;9030;50.792;8.320;2022-09-14T14:31:40;18.80;99.90
17813;DHT22;9030;50.792;8.320;2022-09-14T14:34:15;18.70;99.90
17813;DHT22;9030;50.792;8.320;2022-09-14T14:36:45;18.70;99.90
17813;DHT22;9030;50.792;8.320;2022-09-14T14:39:15;18.60;99.90
17813;DHT22;9030;50.792;8.320;2022-09-14T14:41:41;18.60;99.90
17813;DHT22;9030;50.792;8.320;2022-09-14T14:44:11;18.50;99.90
17813;DHT22;9030;50.792;8.320;2022-09-14T14:46:40;18.60;99.90
17813;DHT22;9030;50.792;8.320;2022-09-14T14:49:09;18.60;99.90
17813;DHT22;9030;50.792;8.320;2022-09-14T14:51:36;18.60;99.90
17813;DHT22;9030;50.792;8.320;2022-09-14T14:54:04;18.60;99.90
17813;DHT22;9030;50.792;8.320;2022-09-14T14:56:31;18.60;99.90
17813;DHT22;9030;50.792;8.320;2022-09-14T14:58:59;18.60;99.90
17813;DHT22;9030;50.792;8.320;2022-09-14T15:01:25;18.60;99.90
17813;DHT22;9030;50.792;8.320;2022-09-14T15:03:52;18.50;99.90
17813;DHT22;9030;50.792;8.320;2022-09-14T15:06:21;18.50;99.90
17813;DHT22;9030;50.792;8.320;2022-09-14T15:08:51;18.40;99.90
17813;DHT22;9030;50.792;8.320;2022-09-14T15:11:20;18.40;99.90
17813;DHT22;9030;50.792;8.320;2022-09-14T15:13:47;18.40;99.90
17813;DHT22;9030;50.792;8.320;2022-09-14T15:16:14;18.30;99.90
17813;DHT22;9030;50.792;8.320;2022-09-14T15:18:41;18.30;99.90
17813;DHT22;9030;50.792;8.320;2022-09-14T15:21:09;18.40;99.90
17813;DHT22;9030;50.792;8.320;2022-09-14T15:23:36;18.40;99.90
17813;DHT22;9030;50.792;8.320;2022-09-14T15:26:04;18.40;99.90
17813;DHT22;9030;50.792;8.320;2022-09-14T15:28:32;18.40;99.90
17813;DHT22;9030;50.792;8.320;2022-09-14T15:31:03;18.30;99.90
17813;DHT22;9030;50.792;8.320;2022-09-14T15:33:31;18.30;99.90
17813;DHT22;9030;50.792;8.320;2022-09-14T15:35:58;18.30;99.90
17813;DHT22;9030;50.792;8.320;2022-09-14T15:38:24;18.30;99.90
17813;DHT22;9030;50.792;8.320;2022-09-14T15:40:51;18.20;99.90
17813;DHT22;9030;50.792;8.320;2022-09-14T15:43:18;18.20;99.90
17813;DHT22;9030;50.792;8.320;2022-09-14T15:45:46;18.20;99.90
17813;DHT22;9030;50.792;8.320;2022-09-14T15:48:13;18.20;99.90
17813;DHT22;9030;50.792;8.320;2022-09-14T15:50:40;18.20;99.90
17813;DHT22;9030;50.792;8.320;2022-09-14T15:53:07;18.20;99.90
17813;DHT22;9030;50.792;8.320;2022-09-14T15:55:34;18.20;99.90
17813;DHT22;9030;50.792;8.320;2022-09-14T15:58:03;18.20;99.90
17813;DHT22;9030;50.792;8.320;2022-09-14T16:00:30;18.00;99.90
17813;DHT22;9030;50.792;8.320;2022-09-14T16:02:58;17.90;99.90
17813;DHT22;9030;50.792;8.320;2022-09-14T16:05:25;17.90;99.90
17813;DHT22;9030;50.792;8.320;2022-09-14T16:07:52;17.90;99.90
17813;DHT22;9030;50.792;8.320;2022-09-14T16:10:19;17.90;99.90
17813;DHT22;9030;50.792;8.320;2022-09-14T16:12:45;18.00;99.90
17813;DHT22;9030;50.792;8.320;2022-09-14T16:15:13;17.90;99.90
17813;DHT22;9030;50.792;8.320;2022-09-14T16:17:39;17.90;99.90
17813;DHT22;9030;50.792;8.320;2022-09-14T16:20:08;17.80;99.90